Time,TemperatureF,DewpointF,PressureIn,WindDirection,WindDirectionDegrees,WindSpeedMPH,WindSpeedGustMPH,Humidity,HourlyPrecipIn,Conditions,Clouds,dailyrainin,SoftwareType,DateUTC
2013-03-04 00:05:00,25.3,7.0,29.44,WSW,257,0.0,0.0,45,0.00,,---,0.00,VWS V13.01,2013-03-04 05:05:00,
2013-03-04 08:23:00,25.5,7.6,29.44,WSW,257,0.0,0.0,46,0.00,,---,0.00,VWS V13.01,2013-03-04 13:23:00,
2013-03-04 08:28:00,25.0,4.6,29.53,WNW,287,3.6,3.6,41,0.00,,---,0.00,VWS V13.01,2013-03-04 13:28:00,
2013-03-04 08:33:00,25.0,4.6,29.53,West,275,6.3,6.3,41,0.00,,---,0.00,VWS V13.01,2013-03-04 13:33:00,
2013-03-04 08:38:00,25.2,2.6,29.53,SW,218,7.2,7.2,37,0.00,,---,0.00,VWS V13.01,2013-03-04 13:38:00,
2013-03-04 08:43:00,25.3,2.1,29.53,West,274,5.8,7.2,36,0.00,,---,0.00,VWS V13.01,2013-03-04 13:43:00,
2013-03-04 08:48:00,25.3,2.1,29.53,West,264,2.2,2.2,36,0.00,,---,0.00,VWS V13.01,2013-03-04 13:48:00,
2013-03-04 08:53:00,25.9,2.6,29.53,West,271,3.1,3.1,36,0.00,,---,0.00,VWS V13.01,2013-03-04 13:53:00,
2013-03-04 08:58:00,25.9,2.6,29.53,West,267,3.6,3.6,36,0.00,,---,0.00,VWS V13.01,2013-03-04 13:58:00,
2013-03-04 09:03:00,26.1,2.2,29.53,WSW,250,3.1,3.1,35,0.00,,---,0.00,VWS V13.01,2013-03-04 14:03:00,
2013-03-04 09:08:00,26.2,2.3,29.53,SSW,195,8.3,8.3,35,0.00,,---,0.00,VWS V13.01,2013-03-04 14:08:00,
2013-03-04 09:13:00,26.2,2.3,29.53,NW,304,2.2,5.4,35,0.00,,---,0.00,VWS V13.01,2013-03-04 14:13:00,
2013-03-04 09:18:00,26.8,2.2,29.53,WSW,241,2.7,4.0,34,0.00,,---,0.00,VWS V13.01,2013-03-04 14:18:00,
2013-03-04 09:23:00,27.0,2.3,29.53,WSW,251,5.4,5.4,34,0.00,,---,0.00,VWS V13.01,2013-03-04 14:23:00,
2013-03-04 09:28:00,27.0,2.3,29.53,SW,235,2.2,4.0,34,0.00,,---,0.00,VWS V13.01,2013-03-04 14:28:00,
2013-03-04 09:33:00,27.1,1.9,29.53,West,270,2.7,2.7,33,0.00,,---,0.00,VWS V13.01,2013-03-04 14:33:00,
2013-03-04 09:38:00,27.1,1.9,29.53,SW,232,5.8,5.8,33,0.00,,---,0.00,VWS V13.01,2013-03-04 14:38:00,
2013-03-04 09:43:00,27.3,2.0,29.53,WNW,287,2.7,2.7,33,0.00,,---,0.00,VWS V13.01,2013-03-04 14:43:00,
2013-03-04 09:48:00,27.5,2.2,29.53,WSW,256,0.0,0.0,33,0.00,,---,0.00,VWS V13.01,2013-03-04 14:48:00,
2013-03-04 09:53:00,27.5,2.2,29.53,SW,217,3.1,4.0,33,0.00,,---,0.00,VWS V13.01,2013-03-04 14:53:00,
2013-03-04 09:58:00,27.7,2.3,29.53,WSW,253,4.9,4.9,33,0.00,,---,0.00,VWS V13.01,2013-03-04 14:58:00,
2013-03-04 10:03:00,27.7,2.3,29.53,WNW,283,4.9,4.9,33,0.00,,---,0.00,VWS V13.01,2013-03-04 15:03:00,
2013-03-04 10:08:00,27.5,2.2,29.53,WSW,246,4.9,4.9,33,0.00,,---,0.00,VWS V13.01,2013-03-04 15:08:00,
2013-03-04 10:13:00,27.5,2.2,29.53,West,274,10.1,10.1,33,0.00,,---,0.00,VWS V13.01,2013-03-04 15:13:00,
2013-03-04 10:18:00,27.5,2.2,29.53,WSW,258,3.1,3.1,33,0.00,,---,0.00,VWS V13.01,2013-03-04 15:18:00,
2013-03-04 10:23:00,27.5,2.2,29.53,West,281,3.6,3.6,33,0.00,,---,0.00,VWS V13.01,2013-03-04 15:23:00,
2013-03-04 10:28:00,27.3,2.0,29.53,WSW,245,3.6,3.6,33,0.00,,---,0.00,VWS V13.01,2013-03-04 15:28:00,
2013-03-04 10:33:00,27.1,1.9,29.53,West,265,5.4,5.4,33,0.00,,---,0.00,VWS V13.01,2013-03-04 15:33:00,
2013-03-04 10:38:00,27.1,1.9,29.53,West,266,3.1,3.1,33,0.00,,---,0.00,VWS V13.01,2013-03-04 15:38:00,
2013-03-04 10:43:00,27.1,1.9,29.53,West,268,0.0,7.6,33,0.00,,---,0.00,VWS V13.01,2013-03-04 15:43:00,
2013-03-04 10:48:00,27.3,2.0,29.53,SW,233,8.1,8.1,33,0.00,,---,0.00,VWS V13.01,2013-03-04 15:48:00,
2013-03-04 10:53:00,27.3,2.0,29.53,WSW,248,6.3,6.3,33,0.00,,---,0.00,VWS V13.01,2013-03-04 15:53:00,
2013-03-04 10:58:00,27.5,2.8,29.53,WSW,252,2.7,2.7,34,0.00,,---,0.00,VWS V13.01,2013-03-04 15:58:00,
2013-03-04 11:03:00,27.7,3.0,29.53,WNW,290,4.9,4.9,34,0.00,,---,0.00,VWS V13.01,2013-03-04 16:03:00,
2013-03-04 11:08:00,27.7,3.0,29.53,WSW,249,0.0,2.2,34,0.00,,---,0.00,VWS V13.01,2013-03-04 16:08:00,
2013-03-04 11:13:00,27.7,3.0,29.53,WSW,246,4.9,4.9,34,0.00,,---,0.00,VWS V13.01,2013-03-04 16:13:00,
2013-03-04 11:18:00,27.7,3.0,29.53,WSW,241,6.7,6.7,34,0.00,,---,0.00,VWS V13.01,2013-03-04 16:18:00,
2013-03-04 11:23:00,27.3,2.0,29.53,WSW,239,4.0,5.4,33,0.00,,---,0.00,VWS V13.01,2013-03-04 16:23:00,
2013-03-04 11:28:00,27.1,1.9,29.53,WSW,256,3.6,3.6,33,0.00,,---,0.00,VWS V13.01,2013-03-04 16:28:00,
2013-03-04 11:33:00,27.1,1.9,29.53,WSW,242,5.8,5.8,33,0.00,,---,0.00,VWS V13.01,2013-03-04 16:33:00,
2013-03-04 11:38:00,27.1,2.5,29.53,WSW,254,5.4,7.6,34,0.00,,---,0.00,VWS V13.01,2013-03-04 16:38:00,
2013-03-04 11:43:00,27.5,2.8,29.53,WSW,250,3.6,6.7,34,0.00,,---,0.00,VWS V13.01,2013-03-04 16:43:00,
2013-03-04 11:48:00,27.5,2.8,29.53,WSW,253,3.1,5.4,34,0.00,,---,0.00,VWS V13.01,2013-03-04 16:48:00,
2013-03-04 11:53:00,27.9,3.2,29.53,WSW,251,5.8,5.8,34,0.00,,---,0.00,VWS V13.01,2013-03-04 16:53:00,
2013-03-04 11:58:00,27.9,3.2,29.53,WSW,246,3.1,3.1,34,0.00,,---,0.00,VWS V13.01,2013-03-04 16:58:00,
2013-03-04 12:03:00,27.9,3.2,29.53,WSW,248,4.9,5.8,34,0.00,,---,0.00,VWS V13.01,2013-03-04 17:03:00,
2013-03-04 12:08:00,28.0,3.3,29.53,WSW,246,0.0,0.0,34,0.00,,---,0.00,VWS V13.01,2013-03-04 17:08:00,
2013-03-04 12:13:00,28.0,2.7,29.53,NNW,328,4.0,4.0,33,0.00,,---,0.00,VWS V13.01,2013-03-04 17:13:00,
2013-03-04 12:18:00,28.4,3.0,29.53,WSW,255,8.1,8.1,33,0.00,,---,0.00,VWS V13.01,2013-03-04 17:18:00,
2013-03-04 12:23:00,28.4,3.0,29.53,WSW,258,6.3,6.3,33,0.00,,---,0.00,VWS V13.01,2013-03-04 17:23:00,
2013-03-04 12:28:00,28.6,2.5,29.53,NW,304,5.4,5.4,32,0.00,,---,0.00,VWS V13.01,2013-03-04 17:28:00,
2013-03-04 12:33:00,28.8,2.6,29.53,WNW,294,2.7,5.4,32,0.00,,---,0.00,VWS V13.01,2013-03-04 17:33:00,
2013-03-04 12:38:00,28.9,2.8,29.53,SW,218,5.4,5.4,32,0.00,,---,0.00,VWS V13.01,2013-03-04 17:38:00,
2013-03-04 12:43:00,29.3,2.4,29.53,SW,233,6.7,6.7,31,0.00,,---,0.00,VWS V13.01,2013-03-04 17:43:00,
2013-03-04 12:48:00,29.3,2.4,29.53,WNW,289,3.6,3.6,31,0.00,,---,0.00,VWS V13.01,2013-03-04 17:48:00,
2013-03-04 12:53:00,29.3,2.4,29.53,SSW,210,3.1,7.2,31,0.00,,---,0.00,VWS V13.01,2013-03-04 17:53:00,
2013-03-04 12:58:00,29.5,2.6,29.53,West,260,3.6,3.6,31,0.00,,---,0.00,VWS V13.01,2013-03-04 17:58:00,
2013-03-04 13:03:00,29.7,2.7,29.53,WSW,245,4.0,4.0,31,0.00,,---,0.00,VWS V13.01,2013-03-04 18:03:00,
2013-03-04 13:08:00,29.5,2.6,29.50,SW,229,2.2,2.2,31,0.00,,---,0.00,VWS V13.01,2013-03-04 18:08:00,
2013-03-04 13:13:00,29.5,2.6,29.50,SSW,204,5.4,5.4,31,0.00,,---,0.00,VWS V13.01,2013-03-04 18:13:00,
2013-03-04 13:18:00,29.5,2.6,29.50,NW,315,8.7,8.7,31,0.00,,---,0.00,VWS V13.01,2013-03-04 18:18:00,
2013-03-04 13:23:00,29.7,2.7,29.50,SW,224,4.0,5.4,31,0.00,,---,0.00,VWS V13.01,2013-03-04 18:23:00,
2013-03-04 13:28:00,29.5,2.6,29.50,WNW,286,5.4,5.4,31,0.00,,---,0.00,VWS V13.01,2013-03-04 18:28:00,
2013-03-04 13:29:00,29.5,2.6,29.50,WNW,286,5.4,5.4,31,0.00,,---,0.00,VWS V13.01,2013-03-04 18:29:00,
2013-03-04 13:30:00,29.5,2.6,29.50,WNW,286,5.4,5.4,31,0.00,,---,0.00,VWS V13.01,2013-03-04 18:30:00,
2013-03-04 13:35:00,29.8,2.9,29.50,SW,229,5.8,5.8,31,0.00,,---,0.00,VWS V13.01,2013-03-04 18:35:00,
2013-03-04 13:40:00,30.0,3.1,29.50,WNW,302,2.7,3.1,31,0.00,,---,0.00,VWS V13.01,2013-03-04 18:40:00,
2013-03-04 13:45:00,30.4,3.4,29.50,West,280,2.2,3.6,31,0.00,,---,0.00,VWS V13.01,2013-03-04 18:45:00,
2013-03-04 13:50:00,30.4,2.7,29.50,West,265,3.6,7.6,30,0.00,,---,0.00,VWS V13.01,2013-03-04 18:50:00,
2013-03-04 13:55:00,30.2,3.2,29.50,WSW,248,5.4,5.4,31,0.00,,---,0.00,VWS V13.01,2013-03-04 18:55:00,
2013-03-04 14:00:00,30.2,3.2,29.50,West,261,4.9,4.9,31,0.00,,---,0.00,VWS V13.01,2013-03-04 19:00:00,
2013-03-04 14:05:00,30.4,2.7,29.50,SW,227,5.4,5.4,30,0.00,,---,0.00,VWS V13.01,2013-03-04 19:05:00,
2013-03-04 14:09:00,30.7,3.0,29.50,WSW,237,5.4,5.4,30,0.00,,---,0.00,VWS V13.01,2013-03-04 19:09:00,
2013-03-04 14:14:00,30.7,3.0,29.50,SW,232,3.6,5.8,30,0.00,,---,0.00,VWS V13.01,2013-03-04 19:14:00,
2013-03-04 14:19:00,30.9,3.1,29.50,SW,214,13.2,13.2,30,0.00,,---,0.00,VWS V13.01,2013-03-04 19:19:00,
2013-03-04 14:24:00,30.9,3.1,29.50,WSW,240,2.2,3.1,30,0.00,,---,0.00,VWS V13.01,2013-03-04 19:24:00,
2013-03-04 14:29:00,31.8,3.9,29.50,SSW,198,4.9,5.8,30,0.00,,---,0.00,VWS V13.01,2013-03-04 19:29:00,
2013-03-04 14:34:00,31.8,3.9,29.50,SW,215,3.1,5.8,30,0.00,,---,0.00,VWS V13.01,2013-03-04 19:34:00,
2013-03-04 14:39:00,31.3,2.0,29.50,SW,224,8.1,8.1,28,0.00,,---,0.00,VWS V13.01,2013-03-04 19:39:00,
2013-03-04 14:44:00,31.1,1.8,29.50,WSW,251,2.7,2.7,28,0.00,,---,0.00,VWS V13.01,2013-03-04 19:44:00,
2013-03-04 14:49:00,31.1,1.8,29.50,WSW,242,6.3,6.3,28,0.00,,---,0.00,VWS V13.01,2013-03-04 19:49:00,
2013-03-04 14:54:00,30.9,3.1,29.50,SW,229,8.3,8.3,30,0.00,,---,0.00,VWS V13.01,2013-03-04 19:54:00,
2013-03-04 14:59:00,30.9,3.1,29.50,SW,223,3.1,3.6,30,0.00,,---,0.00,VWS V13.01,2013-03-04 19:59:00,
2013-03-04 15:04:00,32.2,4.2,29.50,SW,223,3.1,3.1,30,0.00,,---,0.00,VWS V13.01,2013-03-04 20:04:00,
2013-03-04 15:09:00,32.9,3.4,29.50,WSW,243,3.1,7.6,28,0.00,,---,0.00,VWS V13.01,2013-03-04 20:09:00,
2013-03-04 15:14:00,33.3,3.7,29.50,SW,221,3.1,3.1,28,0.00,,---,0.00,VWS V13.01,2013-03-04 20:14:00,
2013-03-04 15:19:00,34.7,4.2,29.50,West,259,6.3,6.3,27,0.00,,---,0.00,VWS V13.01,2013-03-04 20:19:00,
2013-03-04 15:24:00,34.7,4.2,29.50,SW,222,5.8,5.8,27,0.00,,---,0.00,VWS V13.01,2013-03-04 20:24:00,
2013-03-04 15:29:00,34.9,-0.1,29.50,West,268,6.7,6.7,22,0.00,,---,0.00,VWS V13.01,2013-03-04 20:29:00,
2013-03-04 15:34:00,34.3,2.2,29.53,West,264,2.2,5.4,25,0.00,,---,0.00,VWS V13.01,2013-03-04 20:34:00,
2013-03-04 15:39:00,33.6,1.6,29.53,WNW,282,5.4,5.4,25,0.00,,---,0.00,VWS V13.01,2013-03-04 20:39:00,
2013-03-04 15:44:00,33.1,1.1,29.53,SW,229,7.6,7.6,25,0.00,,---,0.00,VWS V13.01,2013-03-04 20:44:00,
2013-03-04 15:49:00,32.7,0.8,29.53,West,274,7.2,7.2,25,0.00,,---,0.00,VWS V13.01,2013-03-04 20:49:00,
2013-03-04 15:54:00,32.7,0.8,29.53,WSW,239,3.6,3.6,25,0.00,,---,0.00,VWS V13.01,2013-03-04 20:54:00,
2013-03-04 15:59:00,31.8,2.4,29.53,SW,231,7.6,7.6,28,0.00,,---,0.00,VWS V13.01,2013-03-04 20:59:00,
2013-03-04 16:04:00,31.3,2.0,29.53,SSW,212,8.1,8.1,28,0.00,,---,0.00,VWS V13.01,2013-03-04 21:04:00,
2013-03-04 16:09:00,31.1,1.8,29.53,SW,223,5.4,8.1,28,0.00,,---,0.00,VWS V13.01,2013-03-04 21:09:00,
2013-03-04 16:14:00,31.1,1.8,29.53,WSW,241,8.1,8.1,28,0.00,,---,0.00,VWS V13.01,2013-03-04 21:14:00,
2013-03-04 16:19:00,31.1,1.8,29.53,WNW,294,8.7,8.7,28,0.00,,---,0.00,VWS V13.01,2013-03-04 21:19:00,
2013-03-04 16:24:00,31.1,1.8,29.53,WSW,238,8.1,8.1,28,0.00,,---,0.00,VWS V13.01,2013-03-04 21:24:00,
2013-03-04 16:29:00,31.1,3.3,29.53,WSW,252,3.6,4.0,30,0.00,,---,0.00,VWS V13.01,2013-03-04 21:29:00,
2013-03-04 16:34:00,31.1,3.3,29.53,SSW,210,3.6,4.0,30,0.00,,---,0.00,VWS V13.01,2013-03-04 21:34:00,
2013-03-04 16:39:00,31.1,3.3,29.53,WSW,252,5.4,5.4,30,0.00,,---,0.00,VWS V13.01,2013-03-04 21:39:00,
2013-03-04 16:44:00,31.1,3.3,29.53,WSW,245,4.9,4.9,30,0.00,,---,0.00,VWS V13.01,2013-03-04 21:44:00,
2013-03-04 16:49:00,30.9,3.1,29.53,WNW,299,0.0,0.0,30,0.00,,---,0.00,VWS V13.01,2013-03-04 21:49:00,
2013-03-04 16:54:00,30.9,3.1,29.53,WSW,247,6.3,6.3,30,0.00,,---,0.00,VWS V13.01,2013-03-04 21:54:00,
2013-03-04 17:00:00,30.9,3.1,29.53,West,268,4.0,4.0,30,0.00,,---,0.00,VWS V13.01,2013-03-04 22:00:00,
2013-03-04 17:05:00,30.6,2.8,29.53,WSW,252,2.2,6.3,30,0.00,,---,0.00,VWS V13.01,2013-03-04 22:05:00,
2013-03-04 17:10:00,30.6,2.8,29.53,WNW,283,3.6,3.6,30,0.00,,---,0.00,VWS V13.01,2013-03-04 22:10:00,
2013-03-04 17:15:00,30.2,3.2,29.53,WSW,247,3.6,3.6,31,0.00,,---,0.00,VWS V13.01,2013-03-04 22:15:00,
2013-03-04 17:20:00,30.2,3.2,29.53,WSW,252,4.0,4.0,31,0.00,,---,0.00,VWS V13.01,2013-03-04 22:20:00,
2013-03-04 17:25:00,30.2,3.2,29.53,SW,226,5.4,5.4,31,0.00,,---,0.00,VWS V13.01,2013-03-04 22:25:00,
2013-03-04 17:30:00,30.0,3.1,29.53,WNW,288,4.0,4.0,31,0.00,,---,0.00,VWS V13.01,2013-03-04 22:30:00,
2013-03-04 17:35:00,30.0,3.1,29.53,West,268,0.0,0.0,31,0.00,,---,0.00,VWS V13.01,2013-03-04 22:35:00,
2013-03-04 17:40:00,30.0,3.1,29.53,SW,225,3.6,3.6,31,0.00,,---,0.00,VWS V13.01,2013-03-04 22:40:00,
2013-03-04 17:45:00,30.0,3.8,29.53,WNW,290,3.6,3.6,32,0.00,,---,0.00,VWS V13.01,2013-03-04 22:45:00,
2013-03-04 17:50:00,30.0,3.8,29.53,WSW,256,2.7,2.7,32,0.00,,---,0.00,VWS V13.01,2013-03-04 22:50:00,
2013-03-04 17:55:00,29.8,3.6,29.53,WSW,249,2.2,3.1,32,0.00,,---,0.00,VWS V13.01,2013-03-04 22:55:00,
2013-03-04 18:00:00,29.8,3.6,29.53,SW,232,5.4,5.4,32,0.00,,---,0.00,VWS V13.01,2013-03-04 23:00:00,
2013-03-04 18:05:00,29.8,3.6,29.53,West,278,0.0,0.0,32,0.00,,---,0.00,VWS V13.01,2013-03-04 23:05:00,
2013-03-04 18:10:00,29.8,3.6,29.53,WSW,251,0.0,0.0,32,0.00,,---,0.00,VWS V13.01,2013-03-04 23:10:00,
2013-03-04 18:15:00,29.8,3.6,29.53,West,279,0.0,0.0,32,0.00,,---,0.00,VWS V13.01,2013-03-04 23:15:00,
2013-03-04 18:20:00,29.7,3.4,29.56,West,279,0.0,0.0,32,0.00,,---,0.00,VWS V13.01,2013-03-04 23:20:00,
2013-03-04 18:25:00,29.7,3.4,29.56,WNW,292,0.0,0.0,32,0.00,,---,0.00,VWS V13.01,2013-03-04 23:25:00,
2013-03-04 18:30:00,29.7,3.4,29.56,WNW,291,0.0,0.0,32,0.00,,---,0.00,VWS V13.01,2013-03-04 23:30:00,
2013-03-04 18:35:00,29.7,3.4,29.56,West,281,4.0,4.0,32,0.00,,---,0.00,VWS V13.01,2013-03-04 23:35:00,
2013-03-04 18:40:00,29.7,4.1,29.56,West,268,3.1,3.1,33,0.00,,---,0.00,VWS V13.01,2013-03-04 23:40:00,
2013-03-04 18:45:00,29.7,4.1,29.56,WSW,258,2.7,2.7,33,0.00,,---,0.00,VWS V13.01,2013-03-04 23:45:00,
2013-03-04 18:50:00,29.7,4.1,29.56,West,276,3.6,3.6,33,0.00,,---,0.00,VWS V13.01,2013-03-04 23:50:00,
2013-03-04 18:55:00,29.7,4.1,29.56,West,280,0.0,0.0,33,0.00,,---,0.00,VWS V13.01,2013-03-04 23:55:00,
2013-03-04 19:00:00,29.7,4.7,29.56,West,280,5.4,5.4,34,0.00,,---,0.00,VWS V13.01,2013-03-05 00:00:00,
2013-03-04 19:05:00,29.7,4.7,29.56,West,274,0.0,5.4,34,0.00,,---,0.00,VWS V13.01,2013-03-05 00:05:00,
2013-03-04 19:10:00,29.7,4.7,29.56,WSW,253,3.6,3.6,34,0.00,,---,0.00,VWS V13.01,2013-03-05 00:10:00,
2013-03-04 19:15:00,29.7,4.7,29.56,WSW,258,3.6,3.6,34,0.00,,---,0.00,VWS V13.01,2013-03-05 00:15:00,
2013-03-04 19:20:00,29.7,4.7,29.56,WNW,291,0.0,2.7,34,0.00,,---,0.00,VWS V13.01,2013-03-05 00:20:00,
2013-03-04 19:25:00,29.7,4.7,29.56,West,280,2.7,2.7,34,0.00,,---,0.00,VWS V13.01,2013-03-05 00:25:00,
2013-03-04 19:30:00,29.8,5.5,29.56,West,268,0.0,0.0,35,0.00,,---,0.00,VWS V13.01,2013-03-05 00:30:00,
2013-03-04 19:35:00,29.8,5.5,29.56,WSW,251,2.7,2.7,35,0.00,,---,0.00,VWS V13.01,2013-03-05 00:35:00,
2013-03-04 19:40:00,29.8,5.5,29.56,NW,308,3.1,3.1,35,0.00,,---,0.00,VWS V13.01,2013-03-05 00:40:00,
2013-03-04 19:45:00,29.8,5.5,29.56,WSW,244,3.1,3.1,35,0.00,,---,0.00,VWS V13.01,2013-03-05 00:45:00,
2013-03-04 19:50:00,29.8,5.5,29.56,WNW,294,2.2,2.2,35,0.00,,---,0.00,VWS V13.01,2013-03-05 00:50:00,
2013-03-04 19:55:00,29.8,5.5,29.56,WNW,286,2.2,2.2,35,0.00,,---,0.00,VWS V13.01,2013-03-05 00:55:00,
2013-03-04 20:00:00,30.0,5.7,29.56,West,274,0.0,0.0,35,0.00,,---,0.00,VWS V13.01,2013-03-05 01:00:00,
2013-03-04 20:05:00,30.0,5.7,29.56,WNW,292,2.7,2.7,35,0.00,,---,0.00,VWS V13.01,2013-03-05 01:05:00,
2013-03-04 20:10:00,30.0,5.7,29.56,West,277,4.9,4.9,35,0.00,,---,0.00,VWS V13.01,2013-03-05 01:10:00,
2013-03-04 20:15:00,30.0,5.7,29.56,WNW,302,4.0,4.0,35,0.00,,---,0.00,VWS V13.01,2013-03-05 01:15:00,
2013-03-04 20:20:00,30.2,6.5,29.56,West,266,2.7,2.7,36,0.00,,---,0.00,VWS V13.01,2013-03-05 01:20:00,
2013-03-04 20:25:00,30.2,6.5,29.56,WSW,251,0.0,0.0,36,0.00,,---,0.00,VWS V13.01,2013-03-05 01:25:00,
2013-03-04 20:30:00,30.2,6.5,29.56,West,274,5.4,5.4,36,0.00,,---,0.00,VWS V13.01,2013-03-05 01:30:00,
2013-03-04 20:35:00,30.2,6.5,29.56,WSW,240,0.0,0.0,36,0.00,,---,0.00,VWS V13.01,2013-03-05 01:35:00,
2013-03-04 20:40:00,30.2,6.5,29.56,West,274,2.7,2.7,36,0.00,,---,0.00,VWS V13.01,2013-03-05 01:40:00,
2013-03-04 20:45:00,30.2,6.5,29.56,West,277,3.1,3.1,36,0.00,,---,0.00,VWS V13.01,2013-03-05 01:45:00,
2013-03-04 20:50:00,30.2,6.5,29.56,West,277,3.6,3.6,36,0.00,,---,0.00,VWS V13.01,2013-03-05 01:50:00,
2013-03-04 20:55:00,30.2,6.5,29.59,WNW,284,0.0,0.0,36,0.00,,---,0.00,VWS V13.01,2013-03-05 01:55:00,
2013-03-04 21:00:00,30.2,6.5,29.59,WNW,284,2.2,4.0,36,0.00,,---,0.00,VWS V13.01,2013-03-05 02:00:00,
2013-03-04 21:05:00,30.2,7.1,29.56,West,280,0.0,0.0,37,0.00,,---,0.00,VWS V13.01,2013-03-05 02:05:00,
2013-03-04 21:10:00,30.2,7.1,29.56,WNW,294,3.6,3.6,37,0.00,,---,0.00,VWS V13.01,2013-03-05 02:10:00,
2013-03-04 21:15:00,30.0,6.3,29.56,West,263,4.9,5.4,36,0.00,,---,0.00,VWS V13.01,2013-03-05 02:15:00,
2013-03-04 21:20:00,30.2,6.5,29.56,WSW,249,0.0,0.0,36,0.00,,---,0.00,VWS V13.01,2013-03-05 02:20:00,
2013-03-04 21:25:00,30.2,6.5,29.56,West,281,0.0,5.4,36,0.00,,---,0.00,VWS V13.01,2013-03-05 02:25:00,
2013-03-04 21:30:00,30.2,6.5,29.56,NW,307,3.6,3.6,36,0.00,,---,0.00,VWS V13.01,2013-03-05 02:30:00,
2013-03-04 21:35:00,30.2,6.5,29.59,WNW,303,3.1,3.1,36,0.00,,---,0.00,VWS V13.01,2013-03-05 02:35:00,
2013-03-04 21:39:00,30.0,6.3,29.59,West,262,0.0,0.0,36,0.00,,---,0.00,VWS V13.01,2013-03-05 02:39:00,
2013-03-04 21:44:00,30.0,6.3,29.59,West,265,4.0,4.9,36,0.00,,---,0.00,VWS V13.01,2013-03-05 02:44:00,
2013-03-04 21:49:00,30.0,6.3,29.59,WNW,294,0.0,3.1,36,0.00,,---,0.00,VWS V13.01,2013-03-05 02:49:00,
2013-03-04 21:54:00,30.0,6.9,29.59,West,281,2.7,2.7,37,0.00,,---,0.00,VWS V13.01,2013-03-05 02:54:00,
2013-03-04 21:59:00,30.0,6.9,29.59,West,279,2.2,3.6,37,0.00,,---,0.00,VWS V13.01,2013-03-05 02:59:00,
2013-03-04 22:04:00,30.0,6.9,29.59,WNW,290,5.8,5.8,37,0.00,,---,0.00,VWS V13.01,2013-03-05 03:04:00,
2013-03-04 22:09:00,30.0,6.9,29.59,West,275,2.7,2.7,37,0.00,,---,0.00,VWS V13.01,2013-03-05 03:09:00,
2013-03-04 22:15:00,30.0,6.9,29.59,WNW,297,3.1,6.3,37,0.00,,---,0.00,VWS V13.01,2013-03-05 03:15:00,
2013-03-04 22:20:00,29.8,6.2,29.59,NW,306,4.0,4.0,36,0.00,,---,0.00,VWS V13.01,2013-03-05 03:20:00,
2013-03-04 22:25:00,29.8,6.2,29.59,West,261,5.8,5.8,36,0.00,,---,0.00,VWS V13.01,2013-03-05 03:25:00,
2013-03-04 22:30:00,29.7,6.0,29.59,NNW,337,5.4,5.4,36,0.00,,---,0.00,VWS V13.01,2013-03-05 03:30:00,
2013-03-04 22:35:00,29.7,6.0,29.59,WSW,255,2.2,3.6,36,0.00,,---,0.00,VWS V13.01,2013-03-05 03:35:00,
2013-03-04 22:40:00,29.7,6.0,29.59,WNW,287,3.6,3.6,36,0.00,,---,0.00,VWS V13.01,2013-03-05 03:40:00,
2013-03-04 22:45:00,29.5,5.2,29.59,WNW,284,0.0,0.0,35,0.00,,---,0.00,VWS V13.01,2013-03-05 03:45:00,
2013-03-04 22:50:00,29.5,5.2,29.59,WNW,294,4.9,4.9,35,0.00,,---,0.00,VWS V13.01,2013-03-05 03:50:00,
2013-03-04 22:55:00,29.3,5.1,29.59,WNW,293,5.8,5.8,35,0.00,,---,0.00,VWS V13.01,2013-03-05 03:55:00,
2013-03-04 23:00:00,29.3,5.1,29.59,WNW,284,3.6,3.6,35,0.00,,---,0.00,VWS V13.01,2013-03-05 04:00:00,
2013-03-04 23:05:00,28.9,4.7,29.59,West,280,5.8,5.8,35,0.00,,---,0.00,VWS V13.01,2013-03-05 04:05:00,
2013-03-04 23:10:00,28.9,4.7,29.59,WNW,289,3.6,5.4,35,0.00,,---,0.00,VWS V13.01,2013-03-05 04:10:00,
2013-03-04 23:15:00,28.9,4.7,29.59,WNW,300,5.8,5.8,35,0.00,,---,0.00,VWS V13.01,2013-03-05 04:15:00,
2013-03-04 23:19:00,28.8,4.6,29.59,WSW,245,4.0,4.0,35,0.00,,---,0.00,VWS V13.01,2013-03-05 04:19:00,